Time;durP1;ratioP1;P1;durP2;ratioP2;P2;SDS_P1;SDS_P2;PMS_P1;PMS_P2;Temp;Humidity;BMP_temperature;BMP_pressure;BME280_temperature;BME280_humidity;BME280_pressure;Samples;Min_cycle;Max_cycle;Signal;HPM_P1;HPM_P2
2021/10/06 00:00:52;;;;;;;10.53;2.50;;;13.10;99.90;;;;;;5027045;28;20514;-91
2021/10/06 00:03:19;;;;;;;9.40;3.10;;;13.20;99.90;;;;;;5017228;28;20214;-88
2021/10/06 00:05:46;;;;;;;10.93;2.53;;;13.20;99.90;;;;;;5007336;28;20203;-87
2021/10/06 00:08:13;;;;;;;12.73;2.70;;;13.20;99.90;;;;;;5006910;28;20191;-89
2021/10/06 00:10:41;;;;;;;8.50;2.90;;;13.10;99.90;;;;;;5006151;28;20236;-88
2021/10/06 00:13:08;;;;;;;11.97;2.87;;;13.10;99.90;;;;;;5017494;28;20219;-89
2021/10/06 00:15:35;;;;;;;11.13;2.20;;;13.00;99.90;;;;;;5030003;28;20214;-90
2021/10/06 00:18:02;;;;;;;7.93;2.37;;;13.00;99.90;;;;;;5030222;28;20199;-89
2021/10/06 00:20:29;;;;;;;12.43;2.97;;;13.00;99.90;;;;;;5030700;28;20653;-89
2021/10/06 00:22:56;;;;;;;9.10;2.90;;;13.10;99.90;;;;;;5029255;28;20518;-91
2021/10/06 00:25:23;;;;;;;10.53;2.93;;;13.00;99.90;;;;;;5028008;28;20226;-89
2021/10/06 00:27:51;;;;;;;8.83;2.50;;;13.10;99.90;;;;;;5029496;28;20225;-88
2021/10/06 00:30:18;;;;;;;4.70;1.70;;;13.10;99.90;;;;;;5012817;28;20210;-90
2021/10/06 00:32:45;;;;;;;6.17;2.33;;;13.10;99.90;;;;;;5008660;28;20195;-88
2021/10/06 00:35:12;;;;;;;5.13;2.00;;;13.10;99.90;;;;;;5013248;28;20203;-88
2021/10/06 00:37:39;;;;;;;7.93;1.60;;;13.10;99.90;;;;;;5030890;28;20214;-88
2021/10/06 00:40:07;;;;;;;7.07;1.40;;;13.10;99.90;;;;;;5034102;28;20809;-88
2021/10/06 00:42:35;;;;;;;9.57;2.27;;;13.10;99.90;;;;;;5031814;28;20249;-89
2021/10/06 00:45:03;;;;;;;2.93;1.27;;;13.20;99.90;;;;;;5020469;28;20223;-88
2021/10/06 00:47:30;;;;;;;10.07;2.60;;;13.10;99.90;;;;;;5010598;28;20588;-88
2021/10/06 00:49:57;;;;;;;10.97;3.27;;;13.10;99.90;;;;;;5010439;28;20211;-89
2021/10/06 00:52:24;;;;;;;8.43;2.57;;;13.10;99.90;;;;;;5011119;28;20203;-89
2021/10/06 00:54:51;;;;;;;6.10;1.83;;;13.10;99.90;;;;;;5013551;28;20314;-88
2021/10/06 00:57:19;;;;;;;8.63;2.03;;;13.10;99.90;;;;;;5010933;28;20199;-86
2021/10/06 00:59:45;;;;;;;6.73;1.70;;;13.00;99.90;;;;;;5010612;28;20199;-91
2021/10/06 01:02:14;;;;;;;9.43;2.70;;;12.90;99.90;;;;;;5011136;28;20226;-88
2021/10/06 01:04:40;;;;;;;9.00;2.13;;;12.90;99.90;;;;;;5012048;28;20234;-88
2021/10/06 01:07:07;;;;;;;6.43;2.30;;;12.90;99.90;;;;;;5032161;28;20213;-88
2021/10/06 01:09:35;;;;;;;7.50;2.40;;;12.80;99.90;;;;;;5023508;28;20211;-90
2021/10/06 01:12:03;;;;;;;14.20;3.27;;;12.80;99.90;;;;;;5013478;28;20203;-89
2021/10/06 01:14:30;;;;;;;7.40;2.27;;;12.80;99.90;;;;;;5013012;28;20227;-88
2021/10/06 01:16:57;;;;;;;6.17;1.60;;;12.70;99.90;;;;;;5013873;28;20192;-88
2021/10/06 01:19:28;;;;;;;8.60;2.60;;;12.70;99.90;;;;;;5014837;28;20203;-90
2021/10/06 01:21:57;;;;;;;8.77;2.37;;;12.70;99.90;;;;;;5016308;28;20374;-87
2021/10/06 01:24:25;;;;;;;8.40;1.70;;;12.60;99.90;;;;;;5017131;28;20603;-87
2021/10/06 01:26:52;;;;;;;8.43;2.13;;;12.60;99.90;;;;;;5015120;28;20195;-91
2021/10/06 01:29:19;;;;;;;8.67;2.47;;;12.60;99.90;;;;;;5013695;28;20207;-87
2021/10/06 01:31:48;;;;;;;6.33;1.63;;;12.60;99.90;;;;;;5014306;28;20231;-89
2021/10/06 01:34:17;;;;;;;8.20;1.40;;;12.50;99.90;;;;;;5013098;28;20206;-86
2021/10/06 01:36:46;;;;;;;4.03;1.23;;;12.40;99.90;;;;;;5024251;28;20677;-88
2021/10/06 01:39:15;;;;;;;9.37;1.77;;;12.40;99.90;;;;;;5033916;28;20213;-90
2021/10/06 01:41:43;;;;;;;7.87;1.83;;;12.40;99.90;;;;;;5033752;28;20226;-88
2021/10/06 01:44:13;;;;;;;11.90;3.33;;;12.40;99.90;;;;;;5018697;28;20914;-87
2021/10/06 01:46:39;;;;;;;10.80;3.73;;;12.40;99.90;;;;;;5013616;28;20214;-88
2021/10/06 01:49:06;;;;;;;16.10;3.77;;;12.40;99.90;;;;;;5013862;28;20199;-87
2021/10/06 01:51:33;;;;;;;15.90;3.53;;;12.30;99.90;;;;;;5013772;28;20191;-88
2021/10/06 01:54:03;;;;;;;14.17;3.37;;;12.30;99.90;;;;;;5014315;28;20227;-87
2021/10/06 01:56:31;;;;;;;8.10;2.10;;;12.20;99.90;;;;;;5014671;28;20347;-88
2021/10/06 01:58:58;;;;;;;6.93;2.40;;;12.20;99.90;;;;;;5014101;28;20199;-87
2021/10/06 02:01:25;;;;;;;7.60;2.17;;;12.20;99.90;;;;;;5013824;28;20211;-89
2021/10/06 02:03:52;;;;;;;9.03;2.10;;;12.10;99.90;;;;;;5021969;28;20203;-88
2021/10/06 02:06:19;;;;;;;13.73;2.70;;;12.10;99.90;;;;;;5033403;28;20210;-88
2021/10/06 02:08:46;;;;;;;7.10;2.30;;;12.20;99.90;;;;;;5035692;28;20195;-90
2021/10/06 02:11:13;;;;;;;10.13;2.57;;;12.20;99.90;;;;;;5026851;28;20246;-85
2021/10/06 02:13:41;;;;;;;4.40;2.30;;;12.20;99.90;;;;;;5012869;28;20211;-91
2021/10/06 02:16:08;;;;;;;11.10;3.47;;;12.20;99.90;;;;;;5013240;28;20603;-89
2021/10/06 02:18:35;;;;;;;8.47;2.40;;;12.10;99.90;;;;;;5012431;28;20212;-88
2021/10/06 02:21:02;;;;;;;7.27;2.50;;;12.10;99.90;;;;;;5009721;28;20215;-87
2021/10/06 02:23:28;;;;;;;6.53;2.20;;;12.10;99.90;;;;;;5010624;28;20239;-89
2021/10/06 02:25:55;;;;;;;3.70;1.90;;;12.10;99.90;;;;;;5013242;28;20234;-88
2021/10/06 02:28:22;;;;;;;10.40;3.07;;;12.10;99.90;;;;;;5013079;28;20192;-90
2021/10/06 02:30:51;;;;;;;10.73;2.50;;;12.10;99.90;;;;;;5012526;28;20196;-89
2021/10/06 02:33:17;;;;;;;7.97;2.70;;;12.10;99.90;;;;;;5013257;28;20218;-87
2021/10/06 02:35:44;;;;;;;5.83;2.20;;;12.10;99.90;;;;;;5012679;28;20207;-90
2021/10/06 02:38:11;;;;;;;6.57;2.10;;;12.10;99.90;;;;;;5025418;28;20207;-89
2021/10/06 02:40:38;;;;;;;4.23;1.80;;;12.10;99.90;;;;;;5012552;28;20242;-89
2021/10/06 02:43:05;;;;;;;7.87;1.70;;;12.10;99.90;;;;;;5021746;28;20209;-84
2021/10/06 02:45:33;;;;;;;5.50;1.67;;;12.10;99.90;;;;;;5030996;28;20234;-87
2021/10/06 02:48:01;;;;;;;8.27;1.90;;;12.00;99.90;;;;;;5014888;28;20215;-86
2021/10/06 02:50:28;;;;;;;13.90;3.17;;;12.00;99.90;;;;;;5012349;28;20200;-89
2021/10/06 02:52:55;;;;;;;9.47;3.00;;;12.00;99.90;;;;;;5012854;28;20191;-89
2021/10/06 02:55:22;;;;;;;9.00;3.27;;;12.00;99.90;;;;;;5012854;28;20219;-88
2021/10/06 02:57:49;;;;;;;10.17;2.43;;;12.10;99.90;;;;;;5011725;28;20253;-89
2021/10/06 03:00:17;;;;;;;12.30;3.63;;;12.00;99.90;;;;;;5012284;28;20203;-88
2021/10/06 03:02:44;;;;;;;7.03;3.10;;;12.00;99.90;;;;;;5009879;28;20203;-87
2021/10/06 03:05:13;;;;;;;6.30;2.30;;;12.10;99.90;;;;;;5008836;28;20238;-86
2021/10/06 03:07:41;;;;;;;10.20;2.40;;;12.00;99.90;;;;;;5009470;28;20195;-89
2021/10/06 03:10:10;;;;;;;10.50;3.00;;;12.10;99.90;;;;;;5011694;28;20213;-90
2021/10/06 03:12:37;;;;;;;10.13;3.17;;;12.00;99.90;;;;;;5012033;28;20191;-88
2021/10/06 03:15:04;;;;;;;11.67;2.87;;;12.10;99.90;;;;;;5017846;28;20210;-90
2021/10/06 03:17:31;;;;;;;14.40;3.53;;;12.00;99.90;;;;;;5031968;28;20694;-88
2021/10/06 03:19:58;;;;;;;13.10;3.97;;;12.10;99.90;;;;;;5031952;28;20195;-88
2021/10/06 03:22:26;;;;;;;10.00;3.17;;;12.10;99.90;;;;;;5031788;28;20536;-89
2021/10/06 03:24:53;;;;;;;10.57;2.70;;;12.10;99.90;;;;;;5023425;28;20522;-88
2021/10/06 03:27:20;;;;;;;7.57;2.17;;;12.10;99.90;;;;;;5010034;28;20542;-88
2021/10/06 03:29:47;;;;;;;8.53;2.77;;;12.00;99.90;;;;;;5010854;28;20647;-87
2021/10/06 03:32:14;;;;;;;13.03;2.87;;;12.00;99.90;;;;;;5012271;28;20206;-89
2021/10/06 03:34:41;;;;;;;17.37;4.17;;;12.00;99.90;;;;;;5011872;28;20246;-89
2021/10/06 03:37:08;;;;;;;10.30;3.77;;;12.00;99.90;;;;;;5014229;28;20206;-87
2021/10/06 03:39:38;;;;;;;17.83;5.77;;;12.00;99.90;;;;;;5037279;28;20214;-88
2021/10/06 03:42:05;;;;;;;14.03;4.93;;;12.00;99.90;;;;;;5031363;28;20218;-90
2021/10/06 03:44:32;;;;;;;11.63;3.67;;;12.00;99.90;;;;;;5030901;28;20202;-92
2021/10/06 03:46:59;;;;;;;15.90;4.23;;;12.00;99.90;;;;;;5009202;28;20225;-94
2021/10/06 03:49:26;;;;;;;16.43;4.57;;;12.00;99.90;;;;;;5011721;28;20206;-90
2021/10/06 03:51:53;;;;;;;16.67;3.30;;;12.00;99.90;;;;;;5012112;28;20207;-90
2021/10/06 03:54:20;;;;;;;14.17;3.93;;;12.00;99.90;;;;;;5012360;28;20212;-92
2021/10/06 03:56:49;;;;;;;15.17;3.50;;;12.00;99.90;;;;;;5011947;28;20917;-90
2021/10/06 03:59:16;;;;;;;9.70;3.30;;;12.00;99.90;;;;;;5009547;28;20290;-89
2021/10/06 04:01:44;;;;;;;9.53;2.20;;;12.00;99.90;;;;;;5008924;28;20687;-87
2021/10/06 04:04:11;;;;;;;11.77;2.83;;;12.00;99.90;;;;;;5012345;28;20525;-90
2021/10/06 04:06:38;;;;;;;11.83;2.50;;;12.00;99.90;;;;;;5011584;28;20242;-92
2021/10/06 04:09:05;;;;;;;9.10;1.97;;;12.00;99.90;;;;;;5011440;28;20507;-92
2021/10/06 04:11:32;;;;;;;7.37;2.23;;;12.00;99.90;;;;;;5016072;28;20217;-93
2021/10/06 04:14:00;;;;;;;11.90;2.70;;;11.90;99.90;;;;;;5031854;28;20190;-90
2021/10/06 04:16:27;;;;;;;6.80;2.60;;;11.90;99.90;;;;;;5031154;28;21035;-88
2021/10/06 04:18:54;;;;;;;9.53;1.93;;;11.90;99.90;;;;;;5031113;28;20207;-90
2021/10/06 04:21:21;;;;;;;9.17;2.27;;;11.90;99.90;;;;;;5021692;28;20210;-90
2021/10/06 04:23:48;;;;;;;15.80;3.30;;;11.90;99.90;;;;;;5010971;28;20235;-88
2021/10/06 04:26:15;;;;;;;12.97;2.50;;;11.90;99.90;;;;;;5011458;28;20238;-89
2021/10/06 04:28:42;;;;;;;8.00;2.20;;;11.90;99.90;;;;;;5011489;28;20277;-87
2021/10/06 04:31:10;;;;;;;8.50;2.83;;;11.90;99.90;;;;;;5025277;28;20298;-90
2021/10/06 04:33:38;;;;;;;11.97;3.03;;;11.90;99.90;;;;;;5030974;28;20202;-88
2021/10/06 04:36:05;;;;;;;6.30;2.67;;;11.90;99.90;;;;;;5026548;28;20658;-88
2021/10/06 04:38:32;;;;;;;8.30;2.67;;;11.90;99.90;;;;;;5027302;28;20662;-90
2021/10/06 04:40:59;;;;;;;9.40;2.53;;;12.00;99.90;;;;;;5031415;28;20230;-88
2021/10/06 04:43:26;;;;;;;11.47;3.57;;;11.90;99.90;;;;;;5030330;28;20210;-89
2021/10/06 04:45:53;;;;;;;7.03;3.20;;;11.90;99.90;;;;;;5030962;28;20241;-89
2021/10/06 04:48:21;;;;;;;10.90;3.93;;;11.90;99.90;;;;;;5025644;28;20198;-88
2021/10/06 04:50:48;;;;;;;12.47;4.00;;;11.90;99.90;;;;;;5011213;28;20208;-89
2021/10/06 04:53:16;;;;;;;11.67;3.77;;;11.80;99.90;;;;;;5011882;28;20192;-87
2021/10/06 04:55:43;;;;;;;10.67;3.40;;;11.80;99.90;;;;;;5011351;28;20204;-87
2021/10/06 04:58:13;;;;;;;12.10;3.30;;;11.80;99.90;;;;;;5027264;28;20218;-90
2021/10/06 05:00:43;;;;;;;9.20;3.77;;;11.80;99.90;;;;;;5032199;28;20278;-90
2021/10/06 05:03:11;;;;;;;10.07;2.80;;;11.90;99.90;;;;;;5032128;28;20503;-89
2021/10/06 05:05:41;;;;;;;11.20;2.93;;;12.00;99.90;;;;;;5031617;28;20218;-89
2021/10/06 05:08:08;;;;;;;9.77;3.03;;;12.00;99.90;;;;;;5031260;28;20218;-88
2021/10/06 05:10:36;;;;;;;9.53;2.13;;;12.00;99.90;;;;;;5034458;28;20207;-89
2021/10/06 05:13:03;;;;;;;14.07;2.90;;;12.20;99.90;;;;;;5031555;28;20199;-88
2021/10/06 05:15:29;;;;;;;15.57;3.37;;;12.20;99.90;;;;;;5029412;28;20278;-87
2021/10/06 05:17:56;;;;;;;14.30;3.50;;;12.40;99.90;;;;;;5030195;28;20282;-87
2021/10/06 05:20:23;;;;;;;11.53;2.60;;;12.40;99.90;;;;;;5030829;28;20998;-87
2021/10/06 05:22:52;;;;;;;13.37;2.00;;;12.50;99.90;;;;;;5033948;28;20242;-89
2021/10/06 05:25:20;;;;;;;9.00;1.90;;;12.50;99.90;;;;;;5034227;28;20323;-89
2021/10/06 05:27:47;;;;;;;13.37;1.83;;;12.50;99.90;;;;;;5034563;28;20199;-88
2021/10/06 05:30:14;;;;;;;9.70;2.43;;;12.50;99.90;;;;;;5033876;28;20195;-88
2021/10/06 05:32:41;;;;;;;7.80;1.67;;;12.50;99.90;;;;;;5022986;28;20208;-90
2021/10/06 05:35:10;;;;;;;9.00;2.07;;;12.60;99.90;;;;;;5014664;28;20203;-91
2021/10/06 05:37:37;;;;;;;10.83;2.03;;;12.60;99.90;;;;;;5013937;28;20250;-88
2021/10/06 05:40:07;;;;;;;10.30;2.00;;;12.60;99.90;;;;;;5022052;28;20302;-89
2021/10/06 05:42:33;;;;;;;8.27;1.57;;;12.60;99.90;;;;;;5033766;28;20206;-87
2021/10/06 05:45:00;;;;;;;9.83;2.53;;;12.60;99.90;;;;;;5033861;28;20202;-90
2021/10/06 05:47:27;;;;;;;7.60;1.63;;;12.60;99.90;;;;;;5031515;28;20589;-89
2021/10/06 05:49:54;;;;;;;14.00;1.83;;;12.60;99.90;;;;;;5014335;28;20203;-92
2021/10/06 05:52:23;;;;;;;13.87;3.30;;;12.60;99.90;;;;;;5013748;28;20214;-90
2021/10/06 05:54:50;;;;;;;15.33;3.30;;;12.70;99.90;;;;;;5023356;28;20559;-89
2021/10/06 05:57:18;;;;;;;11.53;2.53;;;12.70;99.90;;;;;;5022964;28;20619;-91
2021/10/06 05:59:46;;;;;;;11.50;3.30;;;12.80;99.90;;;;;;5023503;28;20804;-90
2021/10/06 06:02:15;;;;;;;9.10;2.37;;;12.80;99.90;;;;;;5033555;28;20213;-93
2021/10/06 06:04:42;;;;;;;11.50;2.33;;;12.80;99.90;;;;;;5016394;28;20616;-95
2021/10/06 06:07:10;;;;;;;10.97;2.10;;;12.80;99.90;;;;;;5024328;22;20325;-90
2021/10/06 06:09:37;;;;;;;19.20;2.70;;;12.80;99.90;;;;;;5032849;28;20538;-95
2021/10/06 06:12:09;;;;;;;15.83;2.47;;;12.80;99.90;;;;;;5033445;28;20218;-90
2021/10/06 06:14:38;;;;;;;8.93;2.00;;;12.70;99.90;;;;;;5033096;28;20578;-93
2021/10/06 06:17:05;;;;;;;12.60;2.07;;;12.70;99.90;;;;;;5018539;28;20239;-92
2021/10/06 06:19:32;;;;;;;11.77;2.50;;;12.70;99.90;;;;;;5014816;28;20199;-92
2021/10/06 06:21:59;;;;;;;5.77;1.87;;;12.60;99.90;;;;;;5014037;28;20212;-90
2021/10/06 06:24:26;;;;;;;15.13;2.10;;;12.60;99.90;;;;;;5014137;28;20223;-92
2021/10/06 06:26:54;;;;;;;14.30;2.00;;;12.50;99.90;;;;;;5010705;28;20241;-91
2021/10/06 06:29:21;;;;;;;8.43;1.70;;;12.60;99.90;;;;;;5014206;28;20227;-96
2021/10/06 06:31:49;;;;;;;5.80;2.00;;;12.70;99.90;;;;;;5014683;28;20219;-95
2021/10/06 06:34:16;;;;;;;7.43;2.27;;;12.60;99.90;;;;;;5040959;22;20244;-93
2021/10/06 06:36:43;;;;;;;11.10;2.30;;;12.70;99.90;;;;;;5054979;28;20256;-91
2021/10/06 06:39:10;;;;;;;12.13;2.63;;;12.80;99.90;;;;;;5053596;28;20205;-92
2021/10/06 06:41:37;;;;;;;11.60;2.17;;;12.80;99.90;;;;;;5018037;28;20710;-93
2021/10/06 06:44:04;;;;;;;8.97;2.30;;;12.80;99.90;;;;;;5017128;28;20278;-93
2021/10/06 06:46:31;;;;;;;11.67;2.10;;;12.80;99.90;;;;;;5023447;28;20238;-90
2021/10/06 06:49:00;;;;;;;10.67;1.73;;;12.80;99.90;;;;;;5033562;28;20225;-95
2021/10/06 06:51:27;;;;;;;11.80;2.60;;;12.80;99.90;;;;;;5033047;28;20616;-93
2021/10/06 06:53:53;;;;;;;10.43;2.03;;;12.90;99.90;;;;;;5032989;28;20934;-94
2021/10/06 06:56:20;;;;;;;12.87;2.47;;;12.90;99.90;;;;;;5032743;28;20203;-91
2021/10/06 06:58:49;;;;;;;14.57;2.97;;;12.90;99.90;;;;;;5020593;28;20211;-89
2021/10/06 07:01:15;;;;;;;8.70;1.60;;;13.00;99.90;;;;;;5012903;28;20211;-88
2021/10/06 07:03:43;;;;;;;5.93;1.10;;;13.00;99.90;;;;;;5029069;28;20413;-94
2021/10/06 07:06:11;;;;;;;2.67;1.00;;;13.00;99.90;;;;;;5032408;28;20226;-94
2021/10/06 07:08:41;;;;;;;2.53;0.67;;;12.90;99.90;;;;;;5032523;28;20222;-93
2021/10/06 07:11:08;;;;;;;8.53;1.03;;;12.90;99.90;;;;;;5034185;28;20650;-92
2021/10/06 07:13:35;;;;;;;4.40;1.00;;;12.90;99.90;;;;;;5032309;28;20222;-94
2021/10/06 07:16:01;;;;;;;4.00;1.10;;;13.00;99.90;;;;;;5033524;28;20195;-93
2021/10/06 07:18:30;;;;;;;7.60;1.17;;;13.00;99.90;;;;;;5032935;28;20210;-93
2021/10/06 07:20:57;;;;;;;4.67;1.10;;;13.10;99.90;;;;;;5032807;28;20877;-94
2021/10/06 07:23:25;;;;;;;5.40;1.10;;;13.10;99.90;;;;;;5032424;28;20261;-91
2021/10/06 07:25:52;;;;;;;6.17;1.10;;;13.20;99.90;;;;;;5032691;28;20222;-89
2021/10/06 07:28:19;;;;;;;7.53;1.20;;;13.30;99.90;;;;;;5032349;28;20299;-90
2021/10/06 07:30:46;;;;;;;5.90;0.97;;;13.20;99.90;;;;;;5032302;28;20206;-93
2021/10/06 07:33:13;;;;;;;4.53;1.10;;;13.20;99.90;;;;;;5023562;28;20218;-91
2021/10/06 07:35:40;;;;;;;6.93;1.40;;;13.20;99.90;;;;;;5011943;28;20901;-88
2021/10/06 07:38:07;;;;;;;9.70;1.73;;;13.20;99.90;;;;;;5014308;28;20215;-91
2021/10/06 07:40:35;;;;;;;6.30;1.20;;;13.30;99.90;;;;;;5028723;28;20249;-91
2021/10/06 07:43:02;;;;;;;6.53;1.23;;;13.40;99.90;;;;;;5031956;28;20209;-94
2021/10/06 07:45:29;;;;;;;5.77;1.20;;;13.50;99.90;;;;;;5031598;28;20285;-91
2021/10/06 07:47:56;;;;;;;6.70;1.63;;;13.60;99.90;;;;;;5031792;28;20646;-93
2021/10/06 07:50:23;;;;;;;6.40;1.57;;;13.60;99.90;;;;;;5032755;28;20486;-91
2021/10/06 07:52:52;;;;;;;4.60;1.07;;;13.60;99.90;;;;;;5015029;28;20562;-96
2021/10/06 07:55:22;;;;;;;3.10;0.70;;;13.60;99.90;;;;;;5012589;28;20215;-92
2021/10/06 07:57:54;;;;;;;5.47;1.17;;;13.60;99.90;;;;;;5047157;22;20259;-92
2021/10/06 08:00:25;;;;;;;9.37;1.37;;;13.70;99.90;;;;;;5054871;28;20208;-90
2021/10/06 08:02:51;;;;;;;5.13;1.20;;;13.90;99.90;;;;;;5052821;28;20209;-91
2021/10/06 08:05:21;;;;;;;7.40;1.40;;;14.00;99.90;;;;;;5051919;28;20206;-91
2021/10/06 08:07:48;;;;;;;7.90;1.20;;;14.10;99.90;;;;;;5032467;28;20226;-95
2021/10/06 08:10:20;;;;;;;4.43;1.07;;;14.10;99.90;;;;;;5036227;28;20213;-88
2021/10/06 08:12:47;;;;;;;6.67;1.00;;;14.10;99.90;;;;;;5045978;28;20193;-96
2021/10/06 08:15:17;;;;;;;4.40;1.23;;;14.10;99.90;;;;;;5044588;28;20210;-92
2021/10/06 08:17:44;;;;;;;5.50;1.20;;;14.10;99.90;;;;;;5039550;28;20197;-96
2021/10/06 08:20:16;;;;;;;4.53;1.10;;;14.20;99.90;;;;;;5036449;28;20226;-96
2021/10/06 08:22:43;;;;;;;5.13;1.57;;;14.30;99.90;;;;;;5033724;28;20210;-94
2021/10/06 08:25:12;;;;;;;4.80;1.80;;;14.40;99.90;;;;;;5032781;28;20935;-96
2021/10/06 08:27:39;;;;;;;6.00;1.00;;;14.50;99.90;;;;;;5036751;28;20253;-96
2021/10/06 08:32:33;;;;;;;8.47;1.50;;;14.40;99.90;;;;;;5060890;23;20238;-95
2021/10/06 08:35:02;;;;;;;5.97;1.07;;;14.40;99.90;;;;;;5063760;23;20253;-94
2021/10/06 08:37:28;;;;;;;4.53;1.10;;;14.50;99.90;;;;;;5053804;28;20197;-95
2021/10/06 08:39:56;;;;;;;4.40;1.00;;;14.60;99.90;;;;;;5051948;28;20230;-94
2021/10/06 08:42:41;;;;;;;7.60;1.47;;;14.60;99.90;;;;;;5042153;28;20675;-96
2021/10/06 08:45:18;;;;;;;5.60;1.10;;;14.60;99.90;;;;;;5082203;23;20260;-93
2021/10/06 08:47:46;;;;;;;11.87;1.53;;;14.60;99.90;;;;;;5038866;28;20851;-96
2021/10/06 08:50:16;;;;;;;4.43;0.93;;;14.70;99.90;;;;;;5035927;28;20237;-88
2021/10/06 08:52:47;;;;;;;5.87;1.03;;;14.80;99.90;;;;;;5033220;28;20194;-94
2021/10/06 08:55:15;;;;;;;5.10;1.43;;;14.70;99.90;;;;;;5033180;28;20239;-94
2021/10/06 08:57:44;;;;;;;4.83;1.37;;;14.50;99.90;;;;;;5035420;28;20607;-94
2021/10/06 09:00:12;;;;;;;5.07;1.37;;;14.30;99.90;;;;;;5038308;28;20219;-96
2021/10/06 09:02:43;;;;;;;7.50;1.50;;;14.10;99.90;;;;;;5068219;23;20325;-93
2021/10/06 09:05:13;;;;;;;9.47;1.70;;;13.90;99.90;;;;;;5064514;28;20285;-96
2021/10/06 09:07:57;;;;;;;7.40;1.30;;;13.80;99.90;;;;;;5064361;28;20320;-95
2021/10/06 09:13:53;;;;;;;3.47;1.00;;;13.70;99.90;;;;;;5051671;22;20229;-94
2021/10/06 09:22:18;;;;;;;6.53;1.27;;;13.80;99.90;;;;;;5052485;28;20230;-91
2021/10/06 09:30:00;;;;;;;5.60;1.40;;;14.40;99.90;;;;;;5162428;22;20245;-89
2021/10/06 09:32:29;;;;;;;8.30;1.40;;;14.60;99.90;;;;;;5065074;28;20943;-87
2021/10/06 09:35:08;;;;;;;6.27;1.23;;;14.70;99.90;;;;;;5064054;28;20201;-91
2021/10/06 09:37:38;;;;;;;12.37;2.30;;;14.70;99.90;;;;;;5065539;28;20190;-94
2021/10/06 09:40:10;;;;;;;7.27;1.70;;;14.80;99.90;;;;;;5046321;28;20517;-95
2021/10/06 09:42:47;;;;;;;11.20;1.70;;;14.80;99.90;;;;;;5028324;28;20215;-93
2021/10/06 09:45:24;;;;;;;9.23;1.33;;;14.80;99.90;;;;;;5022891;28;20187;-95
2021/10/06 09:48:08;;;;;;;6.53;1.70;;;14.60;99.90;;;;;;5030403;28;20234;-94
2021/10/06 09:50:38;;;;;;;12.53;2.53;;;14.40;99.90;;;;;;5041590;28;20572;-96
2021/10/06 09:53:08;;;;;;;13.07;2.53;;;14.30;99.90;;;;;;5032473;28;20214;-96
2021/10/06 09:55:43;;;;;;;7.60;1.77;;;14.30;99.90;;;;;;5025030;28;20214;-96
2021/10/06 09:58:19;;;;;;;9.70;1.87;;;14.20;99.90;;;;;;5077254;23;20237;-96
2021/10/06 10:00:51;;;;;;;8.10;1.53;;;14.10;99.90;;;;;;5051229;28;20206;-92
2021/10/06 10:03:19;;;;;;;8.83;1.57;;;14.10;99.90;;;;;;5035922;28;20256;-92
2021/10/06 10:05:46;;;;;;;7.73;1.50;;;14.10;99.90;;;;;;5033965;28;20210;-94
2021/10/06 10:08:13;;;;;;;8.57;1.40;;;14.10;99.90;;;;;;5035313;28;20517;-93
2021/10/06 10:10:42;;;;;;;6.73;1.47;;;14.20;99.90;;;;;;5034029;28;20286;-96
2021/10/06 10:13:10;;;;;;;11.37;1.27;;;14.40;99.90;;;;;;5036215;28;20237;-95
2021/10/06 10:15:37;;;;;;;7.00;1.47;;;14.60;99.90;;;;;;5035657;28;20223;-96
2021/10/06 10:18:07;;;;;;;10.27;1.60;;;14.90;99.90;;;;;;5036552;28;20205;-96
2021/10/06 10:20:36;;;;;;;12.43;2.63;;;15.20;99.90;;;;;;5038242;28;20290;-96
2021/10/06 10:23:12;;;;;;;11.73;4.57;;;15.30;99.90;;;;;;5037285;28;20209;-96
2021/10/06 10:25:43;;;;;;;7.77;1.43;;;15.30;99.90;;;;;;5060000;22;20592;-90
2021/10/06 10:30:37;;;;;;;11.17;1.43;;;15.20;99.90;;;;;;5089811;22;20937;-95
2021/10/06 10:33:39;;;;;;;8.63;1.92;;;15.20;99.90;;;;;;5051578;28;20210;-96
2021/10/06 10:38:39;;;;;;;7.87;1.90;;;15.60;99.90;;;;;;5046450;23;20235;-95
2021/10/06 10:41:06;;;;;;;11.98;1.90;;;15.70;99.90;;;;;;5064116;23;20249;-96
2021/10/06 10:44:06;;;;;;;9.37;1.73;;;15.80;99.90;;;;;;5054657;22;20238;-96
2021/10/06 10:46:57;;;;;;;9.23;1.65;;;15.80;99.90;;;;;;5038782;28;20519;-96
2021/10/06 10:49:25;;;;;;;7.27;1.47;;;16.00;99.90;;;;;;5018113;28;20502;-94
2021/10/06 10:52:07;;;;;;;5.72;1.52;;;16.10;99.90;;;;;;5016634;28;20204;-95
2021/10/06 10:54:40;;;;;;;7.85;2.88;;;16.20;99.90;;;;;;5019753;28;20203;-95
2021/10/06 10:59:44;;;;;;;12.82;4.93;;;16.60;99.90;;;;;;5049731;22;20234;-94
2021/10/06 11:04:56;;;;;;;18.60;6.72;;;16.90;99.90;;;;;;5015380;28;20227;-92
2021/10/06 11:07:24;;;;;;;12.15;5.10;;;17.10;99.90;;;;;;5019857;28;20270;-94
2021/10/06 11:09:55;;;;;;;7.03;2.35;;;17.10;99.90;;;;;;5020730;28;20216;-94
2021/10/06 11:12:42;;;;;;;8.05;2.65;;;17.10;99.90;;;;;;5019061;28;20203;-93
2021/10/06 11:15:32;;;;;;;6.38;1.52;;;16.90;99.90;;;;;;5018738;28;20480;-95
2021/10/06 11:18:45;;;;;;;7.10;1.90;;;16.90;99.90;;;;;;5125005;27;20973;-92
2021/10/06 11:21:12;;;;;;;3.40;1.15;;;17.10;99.90;;;;;;5094030;22;20323;-92
2021/10/06 11:23:45;;;;;;;9.60;2.58;;;17.30;99.90;;;;;;5072087;28;20624;-88
2021/10/06 11:26:16;;;;;;;10.10;3.85;;;17.40;99.90;;;;;;5052363;28;20189;-94
2021/10/06 11:28:44;;;;;;;7.57;1.50;;;17.30;99.90;;;;;;5052427;28;20496;-92
2021/10/06 11:31:13;;;;;;;7.10;1.77;;;17.10;99.90;;;;;;5067705;28;20288;-95
2021/10/06 11:33:42;;;;;;;6.53;1.70;;;16.80;99.90;;;;;;5071314;28;20220;-94
2021/10/06 11:36:11;;;;;;;4.75;1.20;;;16.50;99.90;;;;;;5071961;28;20225;-96
2021/10/06 11:38:39;;;;;;;8.27;1.92;;;16.30;99.90;;;;;;5070695;28;20304;-94
2021/10/06 11:41:06;;;;;;;10.80;1.55;;;16.40;99.90;;;;;;5069939;28;20209;-93
2021/10/06 11:43:45;;;;;;;8.98;1.67;;;16.60;99.90;;;;;;5051202;28;20210;-96
2021/10/06 11:46:14;;;;;;;5.95;1.33;;;16.80;99.90;;;;;;5050383;28;20567;-92
2021/10/06 11:48:45;;;;;;;9.05;1.33;;;16.90;99.90;;;;;;5050364;28;20217;-96
2021/10/06 11:51:14;;;;;;;8.52;1.70;;;16.80;99.90;;;;;;5037345;28;20207;-93
2021/10/06 11:53:44;;;;;;;8.25;1.92;;;16.80;99.90;;;;;;5030967;28;20209;-94
2021/10/06 11:56:11;;;;;;;10.13;2.73;;;16.70;99.90;;;;;;5030944;28;20211;-93
2021/10/06 11:58:40;;;;;;;13.02;6.43;;;16.90;99.90;;;;;;5049709;28;20202;-94
2021/10/06 12:01:10;;;;;;;6.82;2.40;;;16.90;99.90;;;;;;5050739;28;20237;-93
2021/10/06 12:03:38;;;;;;;5.85;1.30;;;17.00;99.90;;;;;;5029165;28;20203;-94
2021/10/06 12:06:12;;;;;;;3.83;1.20;;;16.80;99.90;;;;;;5029598;28;20218;-94
2021/10/06 12:08:40;;;;;;;4.47;1.40;;;16.70;99.90;;;;;;5028469;28;20205;-95
2021/10/06 12:11:08;;;;;;;6.53;1.42;;;16.70;99.90;;;;;;5029751;28;20213;-89
2021/10/06 12:13:38;;;;;;;6.47;1.90;;;16.80;99.90;;;;;;5040858;28;20210;-90
2021/10/06 12:16:25;;;;;;;6.47;1.48;;;16.90;99.90;;;;;;5054269;28;20206;-92
2021/10/06 12:18:54;;;;;;;8.40;1.75;;;17.10;99.90;;;;;;5051079;28;20209;-96
2021/10/06 12:21:23;;;;;;;7.50;1.30;;;17.10;99.90;;;;;;5050331;28;20226;-92
2021/10/06 12:23:50;;;;;;;7.20;1.63;;;17.10;99.90;;;;;;5049307;28;20293;-90
2021/10/06 12:26:17;;;;;;;6.07;1.10;;;17.10;99.90;;;;;;5051364;28;20210;-95
2021/10/06 12:28:58;;;;;;;7.53;1.63;;;17.10;99.90;;;;;;5044121;28;20499;-91
2021/10/06 12:31:27;;;;;;;7.10;1.38;;;17.30;99.90;;;;;;5038118;28;20281;-93
2021/10/06 12:34:08;;;;;;;4.90;1.08;;;17.40;99.90;;;;;;5036772;28;20206;-91
2021/10/06 12:36:38;;;;;;;6.28;1.55;;;17.50;99.90;;;;;;5035788;28;20226;-89
2021/10/06 12:39:13;;;;;;;5.10;1.20;;;17.60;99.90;;;;;;5031867;28;20239;-89
2021/10/06 12:41:43;;;;;;;6.45;1.20;;;17.60;99.90;;;;;;5036499;28;20277;-88
2021/10/06 12:44:34;;;;;;;5.45;1.67;;;17.60;99.90;;;;;;5035799;28;20634;-93
2021/10/06 12:47:02;;;;;;;4.63;1.30;;;17.60;99.90;;;;;;5012202;28;20207;-93
2021/10/06 12:49:32;;;;;;;4.35;1.40;;;17.50;99.90;;;;;;5017828;28;20207;-89
2021/10/06 12:52:03;;;;;;;5.28;1.13;;;17.50;99.90;;;;;;5020459;28;20646;-91
2021/10/06 12:54:32;;;;;;;7.03;1.67;;;17.40;99.90;;;;;;5035599;28;20614;-91
2021/10/06 12:57:01;;;;;;;6.32;1.55;;;17.40;99.90;;;;;;5034423;28;20229;-92
2021/10/06 12:59:34;;;;;;;6.68;1.88;;;17.30;99.90;;;;;;5034993;28;20214;-93
2021/10/06 13:02:03;;;;;;;7.03;1.38;;;17.30;99.90;;;;;;5034818;28;20210;-93
2021/10/06 13:04:30;;;;;;;4.07;1.13;;;17.20;99.90;;;;;;5034934;28;20617;-90
2021/10/06 13:06:57;;;;;;;9.05;1.70;;;17.20;99.90;;;;;;5035385;28;20214;-91
2021/10/06 13:09:26;;;;;;;6.63;1.52;;;17.20;99.90;;;;;;5034735;28;20207;-92
2021/10/06 13:11:55;;;;;;;5.75;1.17;;;17.10;99.90;;;;;;5034721;28;20217;-93
2021/10/06 13:14:22;;;;;;;4.33;1.70;;;16.90;99.90;;;;;;5034686;28;20206;-90
2021/10/06 13:16:50;;;;;;;5.20;1.90;;;16.80;99.90;;;;;;5033952;28;20230;-90
2021/10/06 13:19:17;;;;;;;6.68;1.70;;;16.90;99.90;;;;;;5034855;28;20207;-90